Nasudden, Sweden

11:04 PM CEST on July 25, 2014 (GMT +0200)
Visby (ESSV) Elev 154 ft | 57.66 °N, 18.35 °E | Change Station

Current weather conditions updated 14 minutes ago

Clear
Clear
68 °F
Feels Like 68 °F
N
6
Wind Variable Wind from East

Tomorrow is forecast to be Much Cooler than today.

Today
High -- | Low -- °F
--% Chance of Precip.
Yesterday
High -- | Low -- °F
Precip. -- in
4:31 AM 9:14 PM
Waning Crescent, 1% visible
Pressure 30.12 in
Visibility 6.2 miles
Clouds
Dew Point 63 °F
Humidity 83%
Rainfall 0.00 in
Snow Depth Not available.
UV Not available.
Pollen Not available.
Air Quality Not available.
Flu Activity Not available.
METAR ESSV 252050Z AUTO 09005KT 9999NDV NCD 20/17 Q1020

More Conditions Fewer Conditions

Pressure 30.12 in
Visibility 6.2 miles
Clouds
Dew Point 63 °F
Humidity 83%
Rainfall 0.00 in
Snow Depth Not available.
UV Not available.
Pollen Not available.
Air Quality Not available.
Flu Activity Not available.
METAR ESSV 252050Z AUTO 09005KT 9999NDV NCD 20/17 Q1020

More Conditions Fewer Conditions

10-Day Weather Forecast

Almanac

Astronomy

Jul. 25, 2014 Rise Set
Actual Time 4:31 AM CEST 9:14 PM CEST
Civil Twilight 3:36 AM CEST 10:08 PM CEST
Nautical Twilight 1:59 AM CEST 11:43 PM CEST
Astronomical Twilight Sun does not rise Sun does not rise
Moon 3:23 AM CEST 7:47 PM CEST
Length of Visible Light 18h 31m
Length of Day
16h 42m
Tomorrow will be 3m 45s shorter.
Waning Crescent, 1% of the Moon is Illuminated
Today
Waning Crescent
Jul 26
New
Aug 3
First Quarter
Aug 10
Full
Aug 17
Last Quarter

Today's Extremes

Country Highs Country Lows

Community

WunderPhotos

Upload Photos

1,737,402 photos uploaded!

Nearby

Snow Depth

Not available.

Earthquake Activity

City Distance Mag. Time & Date
No recent earthquake activity has been reported nearby.
Minimum magnitude displayed is 2.5.

Coastal Water Temperatures

Place Temperature
No Stations Reporting

Nearby Weather Stations

There are no personal weather stations in this area.